sensor_id;sensor_type;location;lat;lon;timestamp;pressure;altitude;pressure_sealevel;temperature;humidity
53671;BME280;39571;48.612;8.088;2023-02-27T09:56:22;100372.97;;;8.41;50.52
53671;BME280;39571;48.612;8.088;2023-02-27T10:01:39;100381.16;;;9.73;44.28
53671;BME280;39571;48.612;8.088;2023-02-27T10:16:58;100397.28;;;12.35;35.86
53671;BME280;39571;48.612;8.088;2023-02-27T10:19:33;100408.63;;;12.38;36.36
53671;BME280;39571;48.612;8.088;2023-02-27T10:22:04;100401.69;;;12.31;35.43
53671;BME280;39571;48.612;8.088;2023-02-27T10:24:36;100388.94;;;11.95;33.97
53671;BME280;39571;48.612;8.088;2023-02-27T10:27:05;100402.22;;;11.77;34.26
53671;BME280;39571;48.612;8.088;2023-02-27T10:29:36;100399.75;;;12.51;34.69
53671;BME280;39571;48.612;8.088;2023-02-27T10:32:20;100414.50;;;11.69;34.51
53671;BME280;39571;48.612;8.088;2023-02-27T10:34:54;100409.28;;;11.59;34.25
53671;BME280;39571;48.612;8.088;2023-02-27T10:37:23;100417.88;;;11.86;33.80
53671;BME280;39571;48.612;8.088;2023-02-27T10:39:54;100424.84;;;11.87;33.20
53671;BME280;39571;48.612;8.088;2023-02-27T10:42:21;100419.03;;;11.42;33.54
53671;BME280;39571;48.612;8.088;2023-02-27T10:44:48;100423.50;;;11.25;34.73
53671;BME280;39571;48.612;8.088;2023-02-27T10:47:20;100429.00;;;10.55;34.54
53671;BME280;39571;48.612;8.088;2023-02-27T10:49:46;100431.69;;;9.90;36.08
53671;BME280;39571;48.612;8.088;2023-02-27T10:52:14;100448.84;;;8.84;36.08
53671;BME280;39571;48.612;8.088;2023-02-27T10:54:40;100437.13;;;8.18;37.36
53671;BME280;39571;48.612;8.088;2023-02-27T11:00:05;100429.03;;;7.82;39.52
53671;BME280;39571;48.612;8.088;2023-02-27T11:02:38;100428.00;;;7.61;38.08
53671;BME280;39571;48.612;8.088;2023-02-27T11:05:15;100436.41;;;7.33;39.52
53671;BME280;39571;48.612;8.088;2023-02-27T11:07:42;100441.06;;;6.88;39.81
53671;BME280;39571;48.612;8.088;2023-02-27T11:10:20;100424.53;;;6.83;39.57
53671;BME280;39571;48.612;8.088;2023-02-27T11:13:02;100437.31;;;6.65;40.04
53671;BME280;39571;48.612;8.088;2023-02-27T11:15:32;100429.56;;;6.68;40.65
53671;BME280;39571;48.612;8.088;2023-02-27T11:18:28;100423.56;;;6.75;41.68
53671;BME280;39571;48.612;8.088;2023-02-27T11:21:09;100426.50;;;7.02;42.65
53671;BME280;39571;48.612;8.088;2023-02-27T11:23:34;100418.78;;;7.11;42.80
53671;BME280;39571;48.612;8.088;2023-02-27T11:26:15;100425.06;;;7.31;43.33
53671;BME280;39571;48.612;8.088;2023-02-27T11:28:41;100417.34;;;7.37;42.57
53671;BME280;39571;48.612;8.088;2023-02-27T11:31:20;100418.16;;;7.35;42.23
53671;BME280;39571;48.612;8.088;2023-02-27T11:33:56;100413.78;;;7.29;43.27
53671;BME280;39571;48.612;8.088;2023-02-27T11:36:23;100418.97;;;7.26;42.69
53671;BME280;39571;48.612;8.088;2023-02-27T11:39:02;100398.19;;;7.32;42.73
53671;BME280;39571;48.612;8.088;2023-02-27T11:41:33;100420.50;;;7.06;41.29
53671;BME280;39571;48.612;8.088;2023-02-27T11:44:01;100407.47;;;7.06;41.10
53671;BME280;39571;48.612;8.088;2023-02-27T11:46:27;100404.78;;;7.00;40.89
53671;BME280;39571;48.612;8.088;2023-02-27T11:49:22;100406.66;;;7.10;39.79
53671;BME280;39571;48.612;8.088;2023-02-27T11:52:16;100408.03;;;6.81;41.06
53671;BME280;39571;48.612;8.088;2023-02-27T11:54:51;100403.19;;;7.11;41.56
53671;BME280;39571;48.612;8.088;2023-02-27T11:57:26;100386.63;;;7.03;41.93
53671;BME280;39571;48.612;8.088;2023-02-27T12:00:00;100411.63;;;6.89;42.22
53671;BME280;39571;48.612;8.088;2023-02-27T12:05:18;100404.97;;;7.15;42.25
53671;BME280;39571;48.612;8.088;2023-02-27T12:10:33;100400.13;;;7.51;42.87
53671;BME280;39571;48.612;8.088;2023-02-27T12:13:08;100403.59;;;7.53;42.35
53671;BME280;39571;48.612;8.088;2023-02-27T12:18:05;100393.25;;;7.59;42.66
53671;BME280;39571;48.612;8.088;2023-02-27T12:20:37;100393.19;;;7.53;41.91
53671;BME280;39571;48.612;8.088;2023-02-27T12:23:14;100389.81;;;7.67;42.15
53671;BME280;39571;48.612;8.088;2023-02-27T12:25:50;100396.69;;;7.58;42.13
53671;BME280;39571;48.612;8.088;2023-02-27T12:28:44;100392.97;;;7.29;41.59
53671;BME280;39571;48.612;8.088;2023-02-27T12:31:21;100368.94;;;7.57;42.99
53671;BME280;39571;48.612;8.088;2023-02-27T12:33:54;100359.97;;;7.28;42.85
53671;BME280;39571;48.612;8.088;2023-02-27T12:36:23;100375.63;;;7.31;43.72
53671;BME280;39571;48.612;8.088;2023-02-27T12:38:48;100381.81;;;7.41;43.37
53671;BME280;39571;48.612;8.088;2023-02-27T12:51:55;100385.41;;;6.74;44.47
53671;BME280;39571;48.612;8.088;2023-02-27T12:54:31;100376.31;;;6.41;43.84
53671;BME280;39571;48.612;8.088;2023-02-27T12:59:56;100388.13;;;6.18;44.43
53671;BME280;39571;48.612;8.088;2023-02-27T13:02:31;100386.19;;;6.02;44.70
53671;BME280;39571;48.612;8.088;2023-02-27T13:08:04;100388.75;;;6.00;45.99
53671;BME280;39571;48.612;8.088;2023-02-27T13:10:50;100395.53;;;5.89;45.43
53671;BME280;39571;48.612;8.088;2023-02-27T13:13:46;100372.16;;;5.91;47.68
53671;BME280;39571;48.612;8.088;2023-02-27T13:16:36;100382.97;;;6.21;48.63
53671;BME280;39571;48.612;8.088;2023-02-27T13:19:05;100379.38;;;6.10;49.20
53671;BME280;39571;48.612;8.088;2023-02-27T13:21:41;100374.34;;;6.22;49.85
53671;BME280;39571;48.612;8.088;2023-02-27T13:24:26;100370.88;;;6.20;50.17
53671;BME280;39571;48.612;8.088;2023-02-27T13:26:56;100381.41;;;6.32;50.16
53671;BME280;39571;48.612;8.088;2023-02-27T13:29:34;100365.06;;;6.41;49.94
53671;BME280;39571;48.612;8.088;2023-02-27T13:34:40;100375.41;;;6.36;49.78
53671;BME280;39571;48.612;8.088;2023-02-27T13:37:08;100383.19;;;6.36;49.80
53671;BME280;39571;48.612;8.088;2023-02-27T13:42:03;100380.97;;;6.65;48.50
53671;BME280;39571;48.612;8.088;2023-02-27T13:50:04;100380.50;;;6.29;50.59
53671;BME280;39571;48.612;8.088;2023-02-27T13:52:39;100372.59;;;6.21;50.96
53671;BME280;39571;48.612;8.088;2023-02-27T13:55:26;100367.34;;;6.18;50.75
53671;BME280;39571;48.612;8.088;2023-02-27T13:57:54;100370.75;;;6.14;51.33
53671;BME280;39571;48.612;8.088;2023-02-27T14:00:26;100369.06;;;6.16;50.11
53671;BME280;39571;48.612;8.088;2023-02-27T14:02:54;100372.63;;;6.24;51.16
53671;BME280;39571;48.612;8.088;2023-02-27T14:05:38;100378.69;;;6.23;52.64
53671;BME280;39571;48.612;8.088;2023-02-27T14:08:13;100379.41;;;6.13;52.37
53671;BME280;39571;48.612;8.088;2023-02-27T14:10:53;100384.41;;;6.01;52.62
53671;BME280;39571;48.612;8.088;2023-02-27T14:24:20;100398.91;;;5.87;55.19
53671;BME280;39571;48.612;8.088;2023-02-27T14:26:46;100399.69;;;5.83;54.14
53671;BME280;39571;48.612;8.088;2023-02-27T14:29:27;100408.25;;;5.76;54.71
53671;BME280;39571;48.612;8.088;2023-02-27T14:31:56;100401.22;;;5.69;55.35
53671;BME280;39571;48.612;8.088;2023-02-27T14:34:24;100408.00;;;5.60;55.26
53671;BME280;39571;48.612;8.088;2023-02-27T14:36:52;100410.31;;;5.44;56.09
53671;BME280;39571;48.612;8.088;2023-02-27T14:39:34;100415.06;;;5.20;56.31
53671;BME280;39571;48.612;8.088;2023-02-27T14:44:46;100408.63;;;5.01;58.25
53671;BME280;39571;48.612;8.088;2023-02-27T14:47:27;100413.53;;;4.86;58.67
53671;BME280;39571;48.612;8.088;2023-02-27T14:49:53;100415.19;;;4.82;59.12
53671;BME280;39571;48.612;8.088;2023-02-27T14:52:21;100415.69;;;4.66;59.51
53671;BME280;39571;48.612;8.088;2023-02-27T14:54:48;100420.00;;;4.66;60.62
53671;BME280;39571;48.612;8.088;2023-02-27T14:57:23;100426.72;;;4.54;61.20
53671;BME280;39571;48.612;8.088;2023-02-27T14:59:52;100429.19;;;4.50;62.51
53671;BME280;39571;48.612;8.088;2023-02-27T15:02:24;100424.66;;;4.41;62.62
53671;BME280;39571;48.612;8.088;2023-02-27T15:05:14;100421.06;;;4.33;63.65
53671;BME280;39571;48.612;8.088;2023-02-27T15:07:43;100426.31;;;4.36;63.75
53671;BME280;39571;48.612;8.088;2023-02-27T15:10:16;100441.72;;;4.30;64.53
53671;BME280;39571;48.612;8.088;2023-02-27T15:12:44;100429.47;;;4.23;65.19
53671;BME280;39571;48.612;8.088;2023-02-27T15:15:17;100431.13;;;4.20;65.18
53671;BME280;39571;48.612;8.088;2023-02-27T15:17:44;100442.28;;;4.17;64.85
53671;BME280;39571;48.612;8.088;2023-02-27T15:20:29;100443.88;;;4.12;65.42
53671;BME280;39571;48.612;8.088;2023-02-27T15:22:56;100447.16;;;4.05;66.45
53671;BME280;39571;48.612;8.088;2023-02-27T15:25:33;100441.16;;;4.06;66.55
53671;BME280;39571;48.612;8.088;2023-02-27T15:28:03;100443.69;;;4.03;67.89
53671;BME280;39571;48.612;8.088;2023-02-27T15:30:29;100444.38;;;3.96;67.14
53671;BME280;39571;48.612;8.088;2023-02-27T15:32:55;100447.94;;;4.01;67.97
53671;BME280;39571;48.612;8.088;2023-02-27T15:35:27;100452.91;;;3.92;68.23
53671;BME280;39571;48.612;8.088;2023-02-27T15:37:56;100454.56;;;3.90;68.48
53671;BME280;39571;48.612;8.088;2023-02-27T15:40:25;100454.34;;;3.81;68.02
53671;BME280;39571;48.612;8.088;2023-02-27T15:42:52;100457.75;;;3.80;67.82
53671;BME280;39571;48.612;8.088;2023-02-27T15:45:21;100459.59;;;3.84;69.01
53671;BME280;39571;48.612;8.088;2023-02-27T15:47:48;100464.63;;;3.78;68.55
53671;BME280;39571;48.612;8.088;2023-02-27T15:52:49;100464.56;;;3.75;68.13
53671;BME280;39571;48.612;8.088;2023-02-27T15:55:21;100472.31;;;3.75;69.12
53671;BME280;39571;48.612;8.088;2023-02-27T15:57:48;100474.03;;;3.74;69.75
53671;BME280;39571;48.612;8.088;2023-02-27T16:00:16;100472.06;;;3.66;69.67
53671;BME280;39571;48.612;8.088;2023-02-27T16:02:45;100472.94;;;3.65;69.71
